OCN142 EDDM-FYWH
Flight info
| Callsign | OCN142 |
|---|---|
| Flight time | N/A |
| Altitude | 35000 |
| Route | TURBU6E TURBU Y107 TOBSO DCT BAKOR DCT VIC DCT KOPER DCT LUMAV DCT TINTO DCT BULAR DCT ABDAB/N0471F360 UL44 TUC UW411 EBA UG362 BARKA/N0478F350 UA605 NAGAH/N0476F370 UA605 DJA UB730 DIR UA607 FL/N0472F390 UA403 BZ DCT KSA UT943 IMVEX/N0466F400 UT943 UNLOK/N0467F390 UT943 VEDRY |
| Aircraft | A333/H-SDE3GHIJ2J3J5M1RVWXY/LB2D1 |
Departure
| Time | 2026-04-30 22:56 |
|---|---|
| Airport | Munich Airport (EDDM) |
Arrival
| Time | N/A |
|---|---|
| Airport | Hosea Kutako International Airport (FYWH) |
| Time | Latitude | Longitude | Altitude | Speed | Heading |
|---|---|---|---|---|---|
| 2026-04-30 22:22 | 48.35560 | 11.79293 | 1476 ft | 0 kts | 263° |
| 2026-04-30 22:24 | 48.35601 | 11.79280 | 1476 ft | 0 kts | 263° |
| 2026-04-30 22:41 | 48.35606 | 11.79340 | 1475 ft | 2 kts | 264° |
| 2026-04-30 22:41 | 48.35609 | 11.79384 | 1475 ft | 1 kts | 264° |
| 2026-04-30 22:42 | 48.35639 | 11.79424 | 1475 ft | 1 kts | 173° |
| 2026-04-30 22:43 | 48.35640 | 11.79423 | 1475 ft | 0 kts | 173° |
| 2026-04-30 22:47 | 48.35432 | 11.79457 | 1476 ft | 25 kts | 174° |
| 2026-04-30 22:47 | 48.35099 | 11.79515 | 1477 ft | 21 kts | 174° |
| 2026-04-30 22:48 | 48.34829 | 11.79558 | 1478 ft | 18 kts | 190° |
| 2026-04-30 22:49 | 48.34734 | 11.78828 | 1481 ft | 32 kts | 264° |
| 2026-04-30 22:49 | 48.34680 | 11.78120 | 1484 ft | 17 kts | 264° |
| 2026-04-30 22:50 | 48.34614 | 11.77265 | 1486 ft | 25 kts | 264° |
| 2026-04-30 22:51 | 48.34577 | 11.76786 | 1487 ft | 13 kts | 263° |
| 2026-04-30 22:51 | 48.34542 | 11.76333 | 1488 ft | 27 kts | 263° |
| 2026-04-30 22:52 | 48.34519 | 11.76046 | 1489 ft | 27 kts | 263° |
| 2026-04-30 22:52 | 48.34476 | 11.75474 | 1490 ft | 25 kts | 264° |
| 2026-04-30 22:53 | 48.34446 | 11.75086 | 1491 ft | 14 kts | 264° |
| 2026-04-30 22:53 | 48.34300 | 11.74919 | 1492 ft | 15 kts | 172° |
| 2026-04-30 22:53 | 48.34207 | 11.74944 | 1492 ft | 13 kts | 156° |
| 2026-04-30 22:54 | 48.34108 | 11.75114 | 1492 ft | 13 kts | 120° |
| 2026-04-30 22:55 | 48.34083 | 11.75315 | 1492 ft | 0 kts | 84° |
| 2026-04-30 22:55 | 48.34084 | 11.75330 | 1492 ft | 9 kts | 84° |
| 2026-04-30 22:56 | 48.34201 | 11.76847 | 1488 ft | 133 kts | 83° |
| 2026-04-30 22:56 | 48.34602 | 11.81960 | 3078 ft | 160 kts | 85° |
| 2026-04-30 22:57 | 48.34850 | 11.85290 | 4054 ft | 172 kts | 85° |
| 2026-04-30 22:57 | 48.35145 | 11.89218 | 4336 ft | 205 kts | 84° |
| 2026-04-30 22:58 | 48.35426 | 11.92953 | 4974 ft | 222 kts | 84° |
| 2026-04-30 22:59 | 48.32534 | 11.99115 | 6823 ft | 243 kts | 139° |
| 2026-04-30 22:59 | 48.28003 | 12.02828 | 8341 ft | 273 kts | 177° |